الصفحة الرئيسية
METAR-TAF:

METAR-TAF

مطار :

Egilsstaðir, أيسلندا

دائرة عرض: 65-17N, خط طول: 014-24W, ارتفاع: 23 متر

مراقبة الطقس الحالي

تاريخ ووقت الإصدار 20 دقيقة قبل الساعة 22:00UTC
ريح 14 عقدة من الجنوب/الجنوب الغربي
درجة الحرارة 6°درجة مئوية
الرطوبة 75%
ضغط 992 hPa
الرؤية 10 كم أو أكثر
غيوم قليلة على ارتفاع 4000 قدم
غيوم متفرقة على ارتفاع 7000 قدم
غيوم مفككة على ارتفاع 10000 قدم
زخات في الجوار

METAR: BIEG 182200Z 21014KT 9999 VCSH FEW040 SCT070 BKN100 06/02 Q0992

زمن: 22:20 (22:20 UTC)

توقعات

تاريخ ووقت الإصدار 2ساعات و 22 دقيقة قبل الساعة 19:58UTC
التوقعات صالحة من18 الساعة 21 UTC إلى 19 الساعة 21 UTC
ريح 15 عقدة من الجنوب/الجنوب الغربي تتزايد حتى 25 عقدة
الرؤية 10 كم أو أكثر
غيوم قليلة على ارتفاع 4000 قدم
غيوم متفرقة على ارتفاع 6000 قدم
مؤقت
من 18 الساعة 21 UTC إلى 19 الساعة 05 UTC
ريح 22 عقدة من الجنوب/الجنوب الغربي تتزايد حتى 35 عقدة

TAF: BIEG 181958Z 1821/1921 20015G25KT 9999 FEW040 SCT060 TX07/1824Z TN01/1921Z TEMPO 1821/1905 20022G35KT

أرصاد الطقس والتوقعات من أكثر من 4000 مطار (تقارير الطقس للمطار METAR والتنبؤ بالطقس بالمطارTAF).

المحطات المتاحة هي النقط الصفراء والحمراء على الخريطة.

حرك المؤشر فوق النقطة لمعرفة اسم المحطة.

ثم انقر لمعرفة أرصاد وتوقعات الطقس.

لتغيير الخارطة: اضغط على الأزرار الخضراء مع رمز الصليب الأسود للتكبير. على الزر الأخضر مع شرطة للتصغير، أو على الأسهم الخضراء للخرائط المجاورة.


METAR-TAF: